Wetterstation Vordersexau
Wetterdaten: Woche 07.08.17 - 13.08.17 (KW32)
Datum Zeit Temp. A. Feuchte A. Luftdruck Regen Wind Richtung Taupunkt Windchill Windben
07.08.2017 00:00 13,4 C 75 % 1018,7 hPa 0,0 l/m 0,0 km/h NO 9,1 C 13,4 C 0,0 km/h
07.08.2017 01:00 12,4 C 78 % 1018,3 hPa 0,0 l/m 0,0 km/h NO 8,7 C 12,4 C 0,0 km/h
07.08.2017 02:00 11,6 C 81 % 1017,8 hPa 0,0 l/m 0,0 km/h N-NO 8,5 C 11,6 C 0,0 km/h
07.08.2017 03:00 11,8 C 82 % 1017,2 hPa 0,0 l/m 0,0 km/h N-NO 8,8 C 11,8 C 0,0 km/h
07.08.2017 04:00 10,8 C 82 % 1017,0 hPa 0,0 l/m 0,0 km/h N-NO 7,9 C 10,8 C 0,0 km/h
07.08.2017 05:00 9,4 C 83 % 1016,8 hPa 0,0 l/m 0,0 km/h N-NO 6,7 C 9,4 C 0,0 km/h
07.08.2017 06:00 8,9 C 84 % 1017,0 hPa 0,0 l/m 0,0 km/h N-NO 6,3 C 8,9 C 0,0 km/h
07.08.2017 07:00 15,8 C 77 % 1016,8 hPa 0,0 l/m 0,0 km/h W-SW 11,8 C 15,8 C 0,0 km/h
07.08.2017 08:00 22,7 C 59 % 1016,6 hPa 0,0 l/m 0,0 km/h W-SW 14,3 C 22,7 C 0,0 km/h
07.08.2017 09:00 24,3 C 55 % 1016,1 hPa 0,0 l/m 0,0 km/h SW 14,7 C 24,3 C 0,0 km/h
07.08.2017 10:00 25,3 C 53 % 1015,4 hPa 0,0 l/m 0,0 km/h W 15,0 C 25,3 C 0,0 km/h
07.08.2017 11:00 25,6 C 53 % 1014,9 hPa 0,0 l/m 3,2 km/h W-NW 15,3 C 25,6 C 1,8 km/h
07.08.2017 12:00 27,5 C 46 % 1014,3 hPa 0,0 l/m 0,0 km/h NW 14,8 C 27,5 C 0,0 km/h
07.08.2017 13:00 28,7 C 43 % 1013,6 hPa 0,0 l/m 0,0 km/h N 14,9 C 28,7 C 0,0 km/h
07.08.2017 14:00 30,1 C 38 % 1012,8 hPa 0,0 l/m 0,0 km/h N-NO 14,2 C 30,1 C 0,0 km/h
07.08.2017 15:00 30,1 C 39 % 1012,3 hPa 0,0 l/m 9,1 km/h N 14,6 C 29,9 C 5,0 km/h
07.08.2017 16:00 32,6 C 35 % 1011,6 hPa 0,0 l/m 5,2 km/h N 15,1 C 32,6 C 2,9 km/h
07.08.2017 17:00 34,4 C 33 % 1010,8 hPa 0,0 l/m 0,0 km/h W-NW 15,8 C 34,4 C 0,0 km/h
07.08.2017 18:00 34,7 C 32 % 1010,1 hPa 0,0 l/m 0,0 km/h W 15,5 C 34,7 C 0,0 km/h
07.08.2017 19:00 27,8 C 45 % 1010,1 hPa 0,0 l/m 0,0 km/h W 14,8 C 27,8 C 0,0 km/h
07.08.2017 20:00 21,8 C 58 % 1010,1 hPa 0,0 l/m 0,0 km/h N-NO 13,2 C 21,8 C 0,0 km/h
07.08.2017 21:00 19,3 C 66 % 1010,2 hPa 0,0 l/m 0,0 km/h N-NO 12,8 C 19,3 C 0,0 km/h
07.08.2017 22:00 18,0 C 70 % 1010,1 hPa 0,0 l/m 0,0 km/h NO 12,4 C 18,0 C 0,0 km/h
07.08.2017 23:00 16,9 C 72 % 1010,4 hPa 0,0 l/m 0,0 km/h N-NO 11,8 C 16,9 C 0,0 km/h
08.08.2017 00:00 15,8 C 77 % 1010,0 hPa 0,0 l/m 0,0 km/h N-NO 11,8 C 15,8 C 0,0 km/h
08.08.2017 01:00 14,8 C 79 % 1009,4 hPa 0,0 l/m 0,0 km/h N-NO 11,2 C 14,8 C 0,0 km/h
08.08.2017 02:00 14,9 C 80 % 1009,3 hPa 0,0 l/m 0,0 km/h N-NO 11,5 C 14,9 C 0,0 km/h
08.08.2017 03:00 15,4 C 82 % 1008,9 hPa 0,0 l/m 0,0 km/h O-SO 12,3 C 15,4 C 0,0 km/h
08.08.2017 04:00 15,9 C 81 % 1007,7 hPa 0,0 l/m 0,0 km/h SO 12,6 C 15,9 C 0,0 km/h
08.08.2017 05:00 16,5 C 80 % 1007,0 hPa 0,0 l/m 0,0 km/h N-NW 13,0 C 16,5 C 0,0 km/h
08.08.2017 06:00 16,2 C 81 % 1008,0 hPa 0,0 l/m 0,0 km/h N-NW 12,9 C 16,2 C 0,0 km/h
08.08.2017 07:00 17,3 C 81 % 1008,0 hPa 0,0 l/m 0,0 km/h SO 14,0 C 17,3 C 0,0 km/h
08.08.2017 08:00 18,9 C 79 % 1009,4 hPa 0,0 l/m 0,0 km/h NW 15,2 C 18,9 C 0,0 km/h
08.08.2017 09:00 19,2 C 80 % 1007,8 hPa 0,5 l/m 0,0 km/h W-SW 15,7 C 19,2 C 0,0 km/h
08.08.2017 10:00 20,3 C 78 % 1009,8 hPa 0,0 l/m 0,0 km/h O 16,3 C 20,3 C 0,0 km/h
08.08.2017 11:00 19,3 C 81 % 1008,1 hPa 0,5 l/m 0,0 km/h S 16,0 C 19,3 C 0,0 km/h
08.08.2017 12:00 19,8 C 80 % 1010,4 hPa 0,0 l/m 18,1 km/h S-SO 16,2 C 16,3 C 10,1 km/h
08.08.2017 13:00 20,6 C 77 % 1009,6 hPa 0,0 l/m 4,5 km/h W 16,4 C 20,6 C 2,5 km/h
08.08.2017 14:00 22,3 C 74 % 1009,4 hPa 0,0 l/m 0,0 km/h W-SW 17,4 C 22,3 C 0,0 km/h
08.08.2017 15:00 20,5 C 65 % 1010,5 hPa 0,0 l/m 19,4 km/h W-SW 13,7 C 17,0 C 10,8 km/h
08.08.2017 16:00 25,9 C 51 % 1010,4 hPa 0,0 l/m 24,6 km/h W-SW 15,0 C 23,4 C 13,7 km/h
08.08.2017 17:00 23,9 C 57 % 1010,3 hPa 0,0 l/m 3,9 km/h S-SW 14,9 C 23,9 C 2,2 km/h
08.08.2017 18:00 22,4 C 62 % 1010,0 hPa 0,0 l/m 12,3 km/h S-SW 14,8 C 20,7 C 6,8 km/h
08.08.2017 19:00 21,4 C 67 % 1010,8 hPa 0,0 l/m 9,7 km/h S-SW 15,0 C 20,3 C 5,4 km/h
08.08.2017 20:00 19,8 C 70 % 1011,2 hPa 0,0 l/m 0,0 km/h SO 14,2 C 19,8 C 0,0 km/h
08.08.2017 21:00 18,3 C 75 % 1012,0 hPa 0,0 l/m 0,0 km/h W 13,8 C 18,3 C 0,0 km/h
08.08.2017 22:00 16,3 C 79 % 1012,7 hPa 0,0 l/m 0,0 km/h W-SW 12,6 C 16,3 C 0,0 km/h
08.08.2017 23:00 16,3 C 81 % 1013,0 hPa 0,0 l/m 0,0 km/h SW 13,0 C 16,3 C 0,0 km/h
09.08.2017 00:00 17,0 C 80 % 1013,5 hPa 0,0 l/m 0,0 km/h S-SO 13,5 C 17,0 C 0,0 km/h
09.08.2017 01:00 16,4 C 81 % 1013,3 hPa 0,0 l/m 0,0 km/h S-SO 13,1 C 16,4 C 0,0 km/h
09.08.2017 02:00 14,8 C 82 % 1013,6 hPa 0,0 l/m 0,0 km/h N-NO 11,8 C 14,8 C 0,0 km/h
09.08.2017 03:00 14,1 C 83 % 1013,5 hPa 0,0 l/m 0,0 km/h N-NO 11,3 C 14,1 C 0,0 km/h
09.08.2017 04:00 11,9 C 83 % 1013,5 hPa 0,0 l/m 0,0 km/h NO 9,1 C 11,9 C 0,0 km/h
09.08.2017 05:00 11,3 C 83 % 1013,9 hPa 0,0 l/m 0,0 km/h O-SO 8,5 C 11,3 C 0,0 km/h
09.08.2017 06:00 11,3 C 82 % 1014,3 hPa 0,0 l/m 0,0 km/h O-SO 8,3 C 11,3 C 0,0 km/h
09.08.2017 07:00 15,8 C 66 % 1014,3 hPa 0,0 l/m 0,0 km/h O-SO 9,5 C 15,8 C 0,0 km/h
09.08.2017 08:00 23,6 C 63 % 1014,3 hPa 0,0 l/m 0,0 km/h W-SW 16,1 C 23,6 C 0,0 km/h
09.08.2017 09:00 25,2 C 54 % 1013,7 hPa 0,0 l/m 0,0 km/h W-SW 15,2 C 25,2 C 0,0 km/h
09.08.2017 10:00 26,4 C 50 % 1013,5 hPa 0,0 l/m 0,0 km/h SW 15,1 C 26,4 C 0,0 km/h
09.08.2017 11:00 26,2 C 48 % 1013,5 hPa 0,0 l/m 0,0 km/h N 14,3 C 26,2 C 0,0 km/h
09.08.2017 12:00 24,8 C 48 % 1013,3 hPa 0,0 l/m 0,0 km/h NW 13,0 C 24,8 C 0,0 km/h
09.08.2017 13:00 25,5 C 48 % 1013,3 hPa 0,0 l/m 0,0 km/h N 13,7 C 25,5 C 0,0 km/h
09.08.2017 14:00 24,2 C 49 % 1013,1 hPa 0,0 l/m 0,0 km/h N 12,8 C 24,2 C 0,0 km/h
09.08.2017 15:00 22,7 C 54 % 1013,0 hPa 0,0 l/m 0,0 km/h N 12,9 C 22,7 C 0,0 km/h
09.08.2017 16:00 23,3 C 56 % 1012,9 hPa 0,0 l/m 0,0 km/h O-NO 14,0 C 23,3 C 0,0 km/h
09.08.2017 17:00 22,7 C 57 % 1012,8 hPa 0,0 l/m 0,0 km/h O-NO 13,7 C 22,7 C 0,0 km/h
09.08.2017 18:00 20,6 C 65 % 1012,6 hPa 0,0 l/m 0,0 km/h W 13,8 C 20,6 C 0,0 km/h
09.08.2017 19:00 17,3 C 81 % 1014,2 hPa 3,1 l/m 0,0 km/h SO 14,0 C 17,3 C 0,0 km/h
09.08.2017 20:00 16,3 C 82 % 1014,3 hPa 1,6 l/m 0,0 km/h SO 13,2 C 16,3 C 0,0 km/h
09.08.2017 21:00 16,1 C 82 % 1014,6 hPa 1,0 l/m 0,0 km/h SO 13,0 C 16,1 C 0,0 km/h
09.08.2017 22:00 15,9 C 82 % 1015,3 hPa 0,5 l/m 0,0 km/h SO 12,8 C 15,9 C 0,0 km/h
09.08.2017 23:00 15,9 C 81 % 1015,4 hPa 0,0 l/m 0,0 km/h NO 12,6 C 15,9 C 0,0 km/h
10.08.2017 00:00 15,5 C 80 % 1015,1 hPa 0,5 l/m 0,0 km/h NO 12,1 C 15,5 C 0,0 km/h
10.08.2017 01:00 15,3 C 80 % 1015,5 hPa 0,0 l/m 0,0 km/h O-NO 11,9 C 15,3 C 0,0 km/h
10.08.2017 02:00 15,2 C 79 % 1016,2 hPa 0,0 l/m 0,0 km/h NO 11,6 C 15,2 C 0,0 km/h
10.08.2017 03:00 15,4 C 77 % 1015,8 hPa 1,0 l/m 0,0 km/h W 11,4 C 15,4 C 0,0 km/h
10.08.2017 04:00 14,9 C 75 % 1015,8 hPa 2,6 l/m 0,0 km/h W 10,5 C 14,9 C 0,0 km/h
10.08.2017 05:00 14,3 C 71 % 1016,6 hPa 0,5 l/m 0,0 km/h SW 9,1 C 14,3 C 0,0 km/h
10.08.2017 06:00 13,3 C 68 % 1016,8 hPa 2,6 l/m 3,9 km/h W-SW 7,5 C 13,3 C 2,2 km/h
10.08.2017 07:00 13,2 C 68 % 1017,0 hPa 1,0 l/m 0,0 km/h W-SW 7,4 C 13,2 C 0,0 km/h
10.08.2017 08:00 13,2 C 66 % 1017,5 hPa 1,6 l/m 0,0 km/h W 7,0 C 13,2 C 0,0 km/h
10.08.2017 09:00 13,3 C 66 % 1017,5 hPa 1,0 l/m 0,0 km/h SO 7,1 C 13,3 C 0,0 km/h
10.08.2017 10:00 13,5 C 66 % 1017,7 hPa 1,0 l/m 0,0 km/h SO 7,3 C 13,5 C 0,0 km/h
10.08.2017 11:00 12,9 C 69 % 1017,8 hPa 1,0 l/m 0,0 km/h O-SO 7,4 C 12,9 C 0,0 km/h
10.08.2017 12:00 12,8 C 71 % 1018,2 hPa 0,5 l/m 0,0 km/h O-SO 7,7 C 12,8 C 0,0 km/h
10.08.2017 13:00 12,6 C 72 % 1018,2 hPa 0,5 l/m 3,2 km/h SO 7,7 C 12,6 C 1,8 km/h
10.08.2017 14:00 13,1 C 72 % 1018,2 hPa 0,5 l/m 0,0 km/h W-NW 8,2 C 13,1 C 0,0 km/h
10.08.2017 15:00 15,1 C 80 % 1017,5 hPa 0,0 l/m 0,0 km/h NW 11,7 C 15,1 C 0,0 km/h
10.08.2017 16:00 16,4 C 83 % 1017,2 hPa 0,0 l/m 0,0 km/h O-SO 13,5 C 16,4 C 0,0 km/h
10.08.2017 17:00 15,7 C 83 % 1017,0 hPa 0,0 l/m 0,0 km/h O-SO 12,8 C 15,7 C 0,0 km/h
10.08.2017 18:00 14,8 C 83 % 1017,4 hPa 0,0 l/m 0,0 km/h O 11,9 C 14,8 C 0,0 km/h
10.08.2017 19:00 15,6 C 83 % 1017,2 hPa 0,0 l/m 0,0 km/h O-NO 12,7 C 15,6 C 0,0 km/h
10.08.2017 20:00 13,1 C 84 % 1016,9 hPa 0,0 l/m 0,0 km/h O-NO 10,5 C 13,1 C 0,0 km/h
10.08.2017 21:00 11,2 C 84 % 1016,6 hPa 0,0 l/m 0,0 km/h O-NO 8,6 C 11,2 C 0,0 km/h
10.08.2017 22:00 10,3 C 83 % 1016,7 hPa 0,0 l/m 0,0 km/h O 7,5 C 10,3 C 0,0 km/h
10.08.2017 23:00 9,6 C 83 % 1016,7 hPa 0,0 l/m 0,0 km/h O-SO 6,9 C 9,6 C 0,0 km/h
11.08.2017 00:00 9,6 C 81 % 1016,9 hPa 0,0 l/m 0,0 km/h O-SO 6,5 C 9,6 C 0,0 km/h
11.08.2017 01:00 9,6 C 80 % 1016,4 hPa 0,0 l/m 0,0 km/h O-SO 6,3 C 9,6 C 0,0 km/h
11.08.2017 02:00 9,5 C 79 % 1016,2 hPa 0,0 l/m 0,0 km/h O-SO 6,0 C 9,5 C 0,0 km/h
11.08.2017 03:00 9,8 C 78 % 1015,4 hPa 0,0 l/m 0,0 km/h O-SO 6,1 C 9,8 C 0,0 km/h
11.08.2017 04:00 9,5 C 77 % 1015,4 hPa 0,0 l/m 0,0 km/h O-SO 5,7 C 9,5 C 0,0 km/h
11.08.2017 05:00 9,8 C 76 % 1015,2 hPa 0,5 l/m 0,0 km/h O-SO 5,8 C 9,8 C 0,0 km/h
11.08.2017 06:00 10,1 C 74 % 1014,9 hPa 0,0 l/m 0,0 km/h O-NO 5,7 C 10,1 C 0,0 km/h
11.08.2017 07:00 10,8 C 72 % 1015,1 hPa 0,0 l/m 0,0 km/h O-SO 6,0 C 10,8 C 0,0 km/h
11.08.2017 08:00 12,5 C 70 % 1014,7 hPa 0,0 l/m 0,0 km/h NO 7,2 C 12,5 C 0,0 km/h
11.08.2017 09:00 14,3 C 79 % 1014,9 hPa 0,0 l/m 0,0 km/h NO 10,7 C 14,3 C 0,0 km/h
11.08.2017 10:00 15,2 C 84 % 1015,4 hPa 0,0 l/m 0,0 km/h O 12,5 C 15,2 C 0,0 km/h
11.08.2017 11:00 16,1 C 82 % 1015,5 hPa 0,0 l/m 0,0 km/h O 13,0 C 16,1 C 0,0 km/h
11.08.2017 12:00 14,9 C 83 % 1015,7 hPa 0,0 l/m 0,0 km/h O-SO 12,0 C 14,9 C 0,0 km/h
11.08.2017 13:00 15,4 C 83 % 1015,4 hPa 0,0 l/m 0,0 km/h SO 12,5 C 15,4 C 0,0 km/h
11.08.2017 14:00 18,4 C 77 % 1015,4 hPa 0,0 l/m 0,0 km/h W-SW 14,3 C 18,4 C 0,0 km/h
11.08.2017 15:00 16,3 C 76 % 1015,4 hPa 0,0 l/m 6,5 km/h S-SO 12,1 C 16,3 C 3,6 km/h
11.08.2017 16:00 16,0 C 79 % 1015,5 hPa 0,0 l/m 0,0 km/h O 12,4 C 16,0 C 0,0 km/h
11.08.2017 17:00 16,1 C 81 % 1015,5 hPa 0,0 l/m 0,0 km/h SW 12,8 C 16,1 C 0,0 km/h
11.08.2017 18:00 17,2 C 77 % 1015,5 hPa 0,0 l/m 5,8 km/h W 13,1 C 17,2 C 3,2 km/h
11.08.2017 19:00 14,7 C 82 % 1015,9 hPa 0,0 l/m 0,0 km/h N-NO 11,7 C 14,7 C 0,0 km/h
11.08.2017 20:00 13,6 C 83 % 1016,3 hPa 2,6 l/m 0,0 km/h S-SO 10,8 C 13,6 C 0,0 km/h
11.08.2017 21:00 13,4 C 82 % 1016,7 hPa 0,0 l/m 0,0 km/h NO 10,4 C 13,4 C 0,0 km/h
11.08.2017 22:00 13,5 C 80 % 1017,0 hPa 0,0 l/m 0,0 km/h NO 10,1 C 13,5 C 0,0 km/h
11.08.2017 23:00 13,3 C 79 % 1017,0 hPa 0,0 l/m 0,0 km/h NO 9,7 C 13,3 C 0,0 km/h
12.08.2017 00:00 13,3 C 78 % 1017,0 hPa 0,0 l/m 0,0 km/h NO 9,5 C 13,3 C 0,0 km/h
12.08.2017 01:00 13,3 C 77 % 1017,1 hPa 0,5 l/m 0,0 km/h SO 9,4 C 13,3 C 0,0 km/h
12.08.2017 02:00 13,1 C 75 % 1017,0 hPa 0,0 l/m 0,0 km/h NO 8,8 C 13,1 C 0,0 km/h
12.08.2017 03:00 13,1 C 75 % 1017,0 hPa 0,5 l/m 0,0 km/h NO 8,8 C 13,1 C 0,0 km/h
12.08.2017 04:00 13,2 C 73 % 1016,9 hPa 0,5 l/m 0,0 km/h O-NO 8,5 C 13,2 C 0,0 km/h
12.08.2017 05:00 13,1 C 72 % 1016,9 hPa 0,0 l/m 0,0 km/h O-NO 8,2 C 13,1 C 0,0 km/h
12.08.2017 06:00 13,1 C 71 % 1016,6 hPa 0,5 l/m 0,0 km/h N-NO 8,0 C 13,1 C 0,0 km/h
12.08.2017 07:00 13,4 C 71 % 1017,2 hPa 0,0 l/m 0,0 km/h NO 8,3 C 13,4 C 0,0 km/h
12.08.2017 08:00 14,8 C 72 % 1017,5 hPa 0,0 l/m 0,0 km/h S-SW 9,8 C 14,8 C 0,0 km/h
12.08.2017 09:00 16,1 C 84 % 1017,6 hPa 0,0 l/m 24,6 km/h W-SW 13,4 C 10,2 C 13,7 km/h
12.08.2017 10:00 18,4 C 77 % 1018,0 hPa 0,0 l/m 17,5 km/h S 14,3 C 14,7 C 9,7 km/h
12.08.2017 11:00 20,2 C 72 % 1018,2 hPa 0,0 l/m 20,7 km/h W 15,0 C 16,3 C 11,5 km/h
12.08.2017 12:00 20,4 C 68 % 1018,2 hPa 0,0 l/m 4,5 km/h W 14,3 C 20,4 C 2,5 km/h
12.08.2017 13:00 22,1 C 60 % 1018,1 hPa 0,0 l/m 18,8 km/h W 14,0 C 19,1 C 10,4 km/h
12.08.2017 14:00 23,6 C 52 % 1018,2 hPa 0,0 l/m 5,8 km/h W 13,2 C 23,6 C 3,2 km/h
12.08.2017 15:00 21,5 C 54 % 1018,2 hPa 0,0 l/m 0,0 km/h W 11,8 C 21,5 C 0,0 km/h
12.08.2017 16:00 19,4 C 60 % 1018,7 hPa 0,0 l/m 0,0 km/h S 11,4 C 19,4 C 0,0 km/h
12.08.2017 17:00 19,6 C 64 % 1018,5 hPa 0,0 l/m 0,0 km/h S 12,6 C 19,6 C 0,0 km/h
12.08.2017 18:00 19,3 C 63 % 1018,2 hPa 0,0 l/m 1,3 km/h SW 12,1 C 19,3 C 0,7 km/h
12.08.2017 19:00 18,3 C 66 % 1018,4 hPa 0,0 l/m 0,0 km/h S-SO 11,8 C 18,3 C 0,0 km/h
12.08.2017 20:00 17,1 C 72 % 1018,6 hPa 0,0 l/m 0,0 km/h NO 12,0 C 17,1 C 0,0 km/h
12.08.2017 21:00 16,6 C 77 % 1018,8 hPa 0,0 l/m 0,0 km/h NO 12,5 C 16,6 C 0,0 km/h
12.08.2017 22:00 16,1 C 80 % 1018,6 hPa 0,0 l/m 0,0 km/h NO 12,6 C 16,1 C 0,0 km/h
12.08.2017 23:00 15,8 C 81 % 1018,7 hPa 0,0 l/m 0,0 km/h NO 12,5 C 15,8 C 0,0 km/h
13.08.2017 00:00 15,6 C 82 % 1018,6 hPa 0,0 l/m 0,0 km/h NO 12,5 C 15,6 C 0,0 km/h
13.08.2017 01:00 15,4 C 82 % 1018,3 hPa 0,0 l/m 0,0 km/h O-SO 12,3 C 15,4 C 0,0 km/h
13.08.2017 02:00 15,1 C 83 % 1018,1 hPa 0,0 l/m 0,0 km/h NO 12,2 C 15,1 C 0,0 km/h
13.08.2017 03:00 13,7 C 83 % 1017,9 hPa 0,0 l/m 0,0 km/h O-SO 10,9 C 13,7 C 0,0 km/h
13.08.2017 04:00 12,9 C 83 % 1017,9 hPa 0,0 l/m 0,0 km/h O-SO 10,1 C 12,9 C 0,0 km/h
13.08.2017 05:00 12,5 C 83 % 1017,8 hPa 0,0 l/m 0,0 km/h O-SO 9,7 C 12,5 C 0,0 km/h
13.08.2017 06:00 13,7 C 82 % 1017,9 hPa 0,0 l/m 0,0 km/h O-SO 10,7 C 13,7 C 0,0 km/h
13.08.2017 07:00 15,5 C 82 % 1018,2 hPa 0,0 l/m 0,0 km/h O-SO 12,4 C 15,5 C 0,0 km/h
13.08.2017 08:00 17,5 C 82 % 1018,4 hPa 0,0 l/m 0,0 km/h SW 14,4 C 17,5 C 0,0 km/h
13.08.2017 09:00 23,1 C 65 % 1018,6 hPa 0,0 l/m 0,0 km/h SW 16,2 C 23,1 C 0,0 km/h
13.08.2017 10:00 23,6 C 62 % 1018,6 hPa 0,0 l/m 0,0 km/h W-SW 15,9 C 23,6 C 0,0 km/h
13.08.2017 11:00 25,1 C 57 % 1018,5 hPa 0,0 l/m 0,0 km/h S 16,0 C 25,1 C 0,0 km/h
13.08.2017 12:00 26,5 C 56 % 1017,9 hPa 0,0 l/m 0,0 km/h W 17,0 C 26,5 C 0,0 km/h
13.08.2017 13:00 28,3 C 50 % 1017,5 hPa 0,0 l/m 1,9 km/h W-NW 16,9 C 28,3 C 1,1 km/h
13.08.2017 14:00 28,1 C 50 % 1017,1 hPa 0,0 l/m 0,0 km/h W-NW 16,7 C 28,1 C 0,0 km/h
13.08.2017 15:00 29,3 C 49 % 1016,9 hPa 0,0 l/m 0,0 km/h N-NO 17,5 C 29,3 C 0,0 km/h
13.08.2017 16:00 29,8 C 46 % 1016,9 hPa 0,0 l/m 3,2 km/h N-NW 16,9 C 29,8 C 1,8 km/h
13.08.2017 17:00 30,8 C 44 % 1016,9 hPa 0,0 l/m 0,0 km/h N-NO 17,1 C 30,8 C 0,0 km/h
13.08.2017 18:00 29,4 C 47 % 1017,0 hPa 0,0 l/m 2,6 km/h N 16,9 C 29,4 C 1,4 km/h
13.08.2017 19:00 24,4 C 58 % 1017,2 hPa 0,0 l/m 0,0 km/h N 15,6 C 24,4 C 0,0 km/h
13.08.2017 20:00 20,0 C 71 % 1017,5 hPa 0,0 l/m 0,0 km/h N 14,6 C 20,0 C 0,0 km/h
13.08.2017 21:00 18,2 C 78 % 1018,0 hPa 0,0 l/m 0,0 km/h N 14,3 C 18,2 C 0,0 km/h
13.08.2017 22:00 17,9 C 79 % 1017,9 hPa 0,0 l/m 0,0 km/h N 14,2 C 17,9 C 0,0 km/h
13.08.2017 23:00 16,5 C 82 % 1017,8 hPa 0,0 l/m 0,0 km/h N 13,4 C 16,5 C 0,0 km/h
Min-Datum _ 07.08.17 07.08.17 08.08.17 - 07.08.17 - 11.08.17 07.08.17 07.08.17
_ Min-Zeit 06:54 18:54 05:54 - 00:54 - 04:54 06:54 00:54
Minimum _ 8,9 C 32 % 1007,0 hPa - 0,0 km/h - 5,7 C 8,9 C 0,0 km/h
Max-Datum _ 07.08.17 07.08.17 12.08.17 09.08.17 08.08.17 - 13.08.17 07.08.17 08.08.17
_ Max-Zeit 18:54 06:54 21:54 19:54 16:54 - 15:54 18:54 16:54
Maximum _ 34,7 C 84 % 1018,8 hPa 3,1 l/m 24,6 km/h
W-SW
- 17,5 C 34,7 C 13,7 km/h
W-SW
Durchschnitt _ 17,8 C 71 % 1015,1 hPa #26,9 l/m 1,4 km/h NO 12,0 C 17,6 C 0,8 km/h
www.sexauwetter.de